sensor_id;sensor_type;location;lat;lon;timestamp;temperature;humidity
8862;DHT22;4799;50.996;4.754;2023-04-15T00:00:03;9.00;99.90
8862;DHT22;4799;50.996;4.754;2023-04-15T00:02:29;9.00;99.90
8862;DHT22;4799;50.996;4.754;2023-04-15T00:04:55;9.00;99.90
8862;DHT22;4799;50.996;4.754;2023-04-15T00:07:21;9.00;99.90
8862;DHT22;4799;50.996;4.754;2023-04-15T00:09:46;9.10;99.90
8862;DHT22;4799;50.996;4.754;2023-04-15T00:12:12;9.10;99.90
8862;DHT22;4799;50.996;4.754;2023-04-15T00:14:38;9.10;99.90
8862;DHT22;4799;50.996;4.754;2023-04-15T00:17:04;9.10;99.90
8862;DHT22;4799;50.996;4.754;2023-04-15T00:19:30;9.10;99.90
8862;DHT22;4799;50.996;4.754;2023-04-15T00:21:57;9.10;99.90
8862;DHT22;4799;50.996;4.754;2023-04-15T00:24:23;9.20;99.90
8862;DHT22;4799;50.996;4.754;2023-04-15T00:26:49;9.20;99.90
8862;DHT22;4799;50.996;4.754;2023-04-15T00:29:14;9.20;99.90
8862;DHT22;4799;50.996;4.754;2023-04-15T00:31:40;9.20;99.90
8862;DHT22;4799;50.996;4.754;2023-04-15T00:34:06;9.20;99.90
8862;DHT22;4799;50.996;4.754;2023-04-15T00:36:32;9.30;99.90
8862;DHT22;4799;50.996;4.754;2023-04-15T00:39:00;9.30;99.90
8862;DHT22;4799;50.996;4.754;2023-04-15T00:41:25;9.30;99.90
8862;DHT22;4799;50.996;4.754;2023-04-15T00:43:51;9.30;99.90
8862;DHT22;4799;50.996;4.754;2023-04-15T00:46:17;9.30;99.90
8862;DHT22;4799;50.996;4.754;2023-04-15T00:48:46;9.40;99.90
8862;DHT22;4799;50.996;4.754;2023-04-15T00:51:12;9.40;99.90
8862;DHT22;4799;50.996;4.754;2023-04-15T00:53:39;9.40;99.90
8862;DHT22;4799;50.996;4.754;2023-04-15T00:56:05;9.40;99.90
8862;DHT22;4799;50.996;4.754;2023-04-15T00:58:31;9.40;99.90
8862;DHT22;4799;50.996;4.754;2023-04-15T01:00:57;9.40;99.90
8862;DHT22;4799;50.996;4.754;2023-04-15T01:03:24;9.40;99.90
8862;DHT22;4799;50.996;4.754;2023-04-15T01:05:49;9.40;99.90
8862;DHT22;4799;50.996;4.754;2023-04-15T01:08:26;9.30;99.90
8862;DHT22;4799;50.996;4.754;2023-04-15T01:10:56;9.30;99.90
8862;DHT22;4799;50.996;4.754;2023-04-15T01:13:23;9.30;99.90
8862;DHT22;4799;50.996;4.754;2023-04-15T01:15:50;9.30;99.90
8862;DHT22;4799;50.996;4.754;2023-04-15T01:18:17;9.30;99.90
8862;DHT22;4799;50.996;4.754;2023-04-15T01:20:45;9.30;99.90
8862;DHT22;4799;50.996;4.754;2023-04-15T01:23:11;9.30;99.90
8862;DHT22;4799;50.996;4.754;2023-04-15T01:25:37;9.30;99.90
8862;DHT22;4799;50.996;4.754;2023-04-15T01:28:04;9.30;99.90
8862;DHT22;4799;50.996;4.754;2023-04-15T01:30:33;9.20;99.90
8862;DHT22;4799;50.996;4.754;2023-04-15T01:32:59;9.30;99.90
8862;DHT22;4799;50.996;4.754;2023-04-15T01:35:25;9.20;99.90
8862;DHT22;4799;50.996;4.754;2023-04-15T01:37:52;9.20;99.90
8862;DHT22;4799;50.996;4.754;2023-04-15T01:40:19;9.20;99.90
8862;DHT22;4799;50.996;4.754;2023-04-15T01:42:45;9.20;99.90
8862;DHT22;4799;50.996;4.754;2023-04-15T01:45:11;9.20;99.90
8862;DHT22;4799;50.996;4.754;2023-04-15T01:47:38;9.20;99.90
8862;DHT22;4799;50.996;4.754;2023-04-15T01:50:05;9.20;99.90
8862;DHT22;4799;50.996;4.754;2023-04-15T01:52:31;9.10;99.90
8862;DHT22;4799;50.996;4.754;2023-04-15T01:54:57;9.10;99.90
8862;DHT22;4799;50.996;4.754;2023-04-15T01:57:22;9.10;99.90
8862;DHT22;4799;50.996;4.754;2023-04-15T01:59:48;9.10;99.90
8862;DHT22;4799;50.996;4.754;2023-04-15T02:02:14;9.10;99.90
8862;DHT22;4799;50.996;4.754;2023-04-15T02:04:40;9.10;99.90
8862;DHT22;4799;50.996;4.754;2023-04-15T02:07:06;9.10;99.90
8862;DHT22;4799;50.996;4.754;2023-04-15T02:09:31;9.10;99.90
8862;DHT22;4799;50.996;4.754;2023-04-15T02:11:57;9.10;99.90
8862;DHT22;4799;50.996;4.754;2023-04-15T02:14:23;9.10;99.90
8862;DHT22;4799;50.996;4.754;2023-04-15T02:16:49;9.10;99.90
8862;DHT22;4799;50.996;4.754;2023-04-15T02:19:14;9.10;99.90
8862;DHT22;4799;50.996;4.754;2023-04-15T02:21:40;9.10;99.90
8862;DHT22;4799;50.996;4.754;2023-04-15T02:24:06;9.10;99.90
8862;DHT22;4799;50.996;4.754;2023-04-15T02:26:32;9.10;99.90
8862;DHT22;4799;50.996;4.754;2023-04-15T02:28:58;9.00;99.90
8862;DHT22;4799;50.996;4.754;2023-04-15T02:31:24;9.00;99.90
8862;DHT22;4799;50.996;4.754;2023-04-15T02:33:50;9.00;99.90
8862;DHT22;4799;50.996;4.754;2023-04-15T02:36:16;9.00;99.90
8862;DHT22;4799;50.996;4.754;2023-04-15T02:38:42;9.00;99.90
8862;DHT22;4799;50.996;4.754;2023-04-15T02:41:09;9.00;99.90
8862;DHT22;4799;50.996;4.754;2023-04-15T02:43:35;9.00;99.90
8862;DHT22;4799;50.996;4.754;2023-04-15T02:46:00;9.00;99.90
8862;DHT22;4799;50.996;4.754;2023-04-15T02:48:26;9.00;99.90
8862;DHT22;4799;50.996;4.754;2023-04-15T02:50:52;8.90;99.90
8862;DHT22;4799;50.996;4.754;2023-04-15T02:53:18;9.00;99.90
8862;DHT22;4799;50.996;4.754;2023-04-15T02:55:44;8.90;99.90
8862;DHT22;4799;50.996;4.754;2023-04-15T02:58:10;8.90;99.90
8862;DHT22;4799;50.996;4.754;2023-04-15T03:00:36;8.90;99.90
8862;DHT22;4799;50.996;4.754;2023-04-15T03:03:04;8.90;99.90
8862;DHT22;4799;50.996;4.754;2023-04-15T03:05:30;8.90;99.90
8862;DHT22;4799;50.996;4.754;2023-04-15T03:07:56;8.90;99.90
8862;DHT22;4799;50.996;4.754;2023-04-15T03:10:22;8.80;99.90
8862;DHT22;4799;50.996;4.754;2023-04-15T03:12:48;8.90;99.90
8862;DHT22;4799;50.996;4.754;2023-04-15T03:15:14;8.90;99.90
8862;DHT22;4799;50.996;4.754;2023-04-15T03:17:40;8.90;99.90
8862;DHT22;4799;50.996;4.754;2023-04-15T03:20:06;8.80;99.90
8862;DHT22;4799;50.996;4.754;2023-04-15T03:22:32;8.90;99.90
8862;DHT22;4799;50.996;4.754;2023-04-15T03:24:58;8.90;99.90
8862;DHT22;4799;50.996;4.754;2023-04-15T03:27:24;8.90;99.90
8862;DHT22;4799;50.996;4.754;2023-04-15T03:29:50;8.90;99.90
8862;DHT22;4799;50.996;4.754;2023-04-15T03:32:16;8.90;99.90
8862;DHT22;4799;50.996;4.754;2023-04-15T03:34:42;8.90;99.90
8862;DHT22;4799;50.996;4.754;2023-04-15T03:37:08;8.80;99.90
8862;DHT22;4799;50.996;4.754;2023-04-15T03:39:34;8.80;99.90
8862;DHT22;4799;50.996;4.754;2023-04-15T03:42:00;8.80;99.90
8862;DHT22;4799;50.996;4.754;2023-04-15T03:44:26;8.80;99.90
8862;DHT22;4799;50.996;4.754;2023-04-15T03:46:52;8.80;99.90
8862;DHT22;4799;50.996;4.754;2023-04-15T03:49:19;8.80;99.90
8862;DHT22;4799;50.996;4.754;2023-04-15T03:51:45;8.80;99.90
8862;DHT22;4799;50.996;4.754;2023-04-15T03:54:11;8.80;99.90
8862;DHT22;4799;50.996;4.754;2023-04-15T03:56:39;8.80;99.90
8862;DHT22;4799;50.996;4.754;2023-04-15T03:59:05;8.80;99.90
8862;DHT22;4799;50.996;4.754;2023-04-15T04:01:31;8.80;99.90
8862;DHT22;4799;50.996;4.754;2023-04-15T04:03:57;8.80;99.90
8862;DHT22;4799;50.996;4.754;2023-04-15T04:06:23;8.70;99.90
8862;DHT22;4799;50.996;4.754;2023-04-15T04:08:49;8.70;99.90
8862;DHT22;4799;50.996;4.754;2023-04-15T04:11:14;8.70;99.90
8862;DHT22;4799;50.996;4.754;2023-04-15T04:13:40;8.70;99.90
8862;DHT22;4799;50.996;4.754;2023-04-15T04:16:06;8.70;99.90
8862;DHT22;4799;50.996;4.754;2023-04-15T04:18:32;8.70;99.90
8862;DHT22;4799;50.996;4.754;2023-04-15T04:20:58;8.70;99.90
8862;DHT22;4799;50.996;4.754;2023-04-15T04:23:25;8.70;99.90
8862;DHT22;4799;50.996;4.754;2023-04-15T04:25:51;8.70;99.90
8862;DHT22;4799;50.996;4.754;2023-04-15T04:28:17;8.60;99.90
8862;DHT22;4799;50.996;4.754;2023-04-15T04:30:43;8.60;99.90
8862;DHT22;4799;50.996;4.754;2023-04-15T04:33:08;8.60;99.90
8862;DHT22;4799;50.996;4.754;2023-04-15T04:35:34;8.60;99.90
8862;DHT22;4799;50.996;4.754;2023-04-15T04:38:02;8.60;99.90
8862;DHT22;4799;50.996;4.754;2023-04-15T04:40:28;8.60;99.90
8862;DHT22;4799;50.996;4.754;2023-04-15T04:42:54;8.60;99.90
8862;DHT22;4799;50.996;4.754;2023-04-15T04:45:20;8.60;99.90
8862;DHT22;4799;50.996;4.754;2023-04-15T04:47:46;8.60;99.90
8862;DHT22;4799;50.996;4.754;2023-04-15T04:50:12;8.60;99.90
8862;DHT22;4799;50.996;4.754;2023-04-15T04:52:38;8.60;99.90
8862;DHT22;4799;50.996;4.754;2023-04-15T04:55:04;8.60;99.90
8862;DHT22;4799;50.996;4.754;2023-04-15T04:57:31;8.60;99.90
8862;DHT22;4799;50.996;4.754;2023-04-15T04:59:56;8.60;99.90
8862;DHT22;4799;50.996;4.754;2023-04-15T05:02:22;8.70;99.90
8862;DHT22;4799;50.996;4.754;2023-04-15T05:04:48;8.70;99.90
8862;DHT22;4799;50.996;4.754;2023-04-15T05:07:14;8.70;99.90
8862;DHT22;4799;50.996;4.754;2023-04-15T05:09:40;8.70;99.90
8862;DHT22;4799;50.996;4.754;2023-04-15T05:12:06;8.70;99.90
8862;DHT22;4799;50.996;4.754;2023-04-15T05:14:33;8.80;99.90
8862;DHT22;4799;50.996;4.754;2023-04-15T05:16:59;8.80;99.90
8862;DHT22;4799;50.996;4.754;2023-04-15T05:19:25;8.90;99.90
8862;DHT22;4799;50.996;4.754;2023-04-15T05:21:51;8.90;99.90
8862;DHT22;4799;50.996;4.754;2023-04-15T05:24:16;8.90;99.90
8862;DHT22;4799;50.996;4.754;2023-04-15T05:26:42;8.90;99.90
8862;DHT22;4799;50.996;4.754;2023-04-15T05:29:08;8.90;99.90
8862;DHT22;4799;50.996;4.754;2023-04-15T05:31:34;9.00;99.90
8862;DHT22;4799;50.996;4.754;2023-04-15T05:34:00;9.00;99.90
8862;DHT22;4799;50.996;4.754;2023-04-15T05:36:26;9.00;99.90
8862;DHT22;4799;50.996;4.754;2023-04-15T05:38:53;9.00;99.90
8862;DHT22;4799;50.996;4.754;2023-04-15T05:41:18;9.10;99.90
8862;DHT22;4799;50.996;4.754;2023-04-15T05:43:44;9.10;99.90
8862;DHT22;4799;50.996;4.754;2023-04-15T05:46:10;9.10;99.90
8862;DHT22;4799;50.996;4.754;2023-04-15T05:48:35;9.10;99.90
8862;DHT22;4799;50.996;4.754;2023-04-15T05:51:01;9.20;99.90
8862;DHT22;4799;50.996;4.754;2023-04-15T05:53:27;9.20;99.90
8862;DHT22;4799;50.996;4.754;2023-04-15T05:55:53;9.20;99.90
8862;DHT22;4799;50.996;4.754;2023-04-15T05:58:18;9.20;99.90
8862;DHT22;4799;50.996;4.754;2023-04-15T06:00:44;9.30;99.90
8862;DHT22;4799;50.996;4.754;2023-04-15T06:03:10;9.30;99.90
8862;DHT22;4799;50.996;4.754;2023-04-15T06:05:36;9.40;99.90
8862;DHT22;4799;50.996;4.754;2023-04-15T06:08:03;9.40;99.90
8862;DHT22;4799;50.996;4.754;2023-04-15T06:10:29;9.50;99.90
8862;DHT22;4799;50.996;4.754;2023-04-15T06:12:55;9.50;99.90
8862;DHT22;4799;50.996;4.754;2023-04-15T06:15:21;9.60;99.90
8862;DHT22;4799;50.996;4.754;2023-04-15T06:17:47;9.60;99.90
8862;DHT22;4799;50.996;4.754;2023-04-15T06:20:13;9.70;99.90
8862;DHT22;4799;50.996;4.754;2023-04-15T06:22:38;9.70;99.90
8862;DHT22;4799;50.996;4.754;2023-04-15T06:25:05;9.80;99.90
8862;DHT22;4799;50.996;4.754;2023-04-15T06:27:32;9.90;99.90
8862;DHT22;4799;50.996;4.754;2023-04-15T06:29:58;10.00;99.90
8862;DHT22;4799;50.996;4.754;2023-04-15T06:32:24;10.10;99.90
8862;DHT22;4799;50.996;4.754;2023-04-15T06:34:50;10.20;99.90
8862;DHT22;4799;50.996;4.754;2023-04-15T06:37:15;10.30;99.90
8862;DHT22;4799;50.996;4.754;2023-04-15T06:39:41;10.30;99.90
8862;DHT22;4799;50.996;4.754;2023-04-15T06:42:09;10.40;99.90
8862;DHT22;4799;50.996;4.754;2023-04-15T06:44:35;10.50;99.90
8862;DHT22;4799;50.996;4.754;2023-04-15T06:47:02;10.50;99.90
8862;DHT22;4799;50.996;4.754;2023-04-15T06:49:27;10.60;99.90
8862;DHT22;4799;50.996;4.754;2023-04-15T06:51:53;10.70;99.90
8862;DHT22;4799;50.996;4.754;2023-04-15T06:54:19;10.70;99.90
8862;DHT22;4799;50.996;4.754;2023-04-15T06:56:44;10.80;99.90
8862;DHT22;4799;50.996;4.754;2023-04-15T06:59:10;10.90;99.90
8862;DHT22;4799;50.996;4.754;2023-04-15T07:01:37;11.10;99.90
8862;DHT22;4799;50.996;4.754;2023-04-15T07:04:03;11.20;99.90
8862;DHT22;4799;50.996;4.754;2023-04-15T07:06:29;11.30;99.90
8862;DHT22;4799;50.996;4.754;2023-04-15T07:08:55;11.40;99.90
8862;DHT22;4799;50.996;4.754;2023-04-15T07:11:21;11.50;99.90
8862;DHT22;4799;50.996;4.754;2023-04-15T07:13:47;11.60;99.90
8862;DHT22;4799;50.996;4.754;2023-04-15T07:16:13;11.70;99.90
8862;DHT22;4799;50.996;4.754;2023-04-15T07:18:38;11.70;99.90
8862;DHT22;4799;50.996;4.754;2023-04-15T07:21:04;11.70;99.80
8862;DHT22;4799;50.996;4.754;2023-04-15T07:23:30;11.70;99.00
8862;DHT22;4799;50.996;4.754;2023-04-15T07:25:56;11.60;98.70
8862;DHT22;4799;50.996;4.754;2023-04-15T07:28:22;11.60;98.30
8862;DHT22;4799;50.996;4.754;2023-04-15T07:30:48;11.60;98.30
8862;DHT22;4799;50.996;4.754;2023-04-15T07:33:13;11.50;98.30
8862;DHT22;4799;50.996;4.754;2023-04-15T07:35:39;11.50;98.40
8862;DHT22;4799;50.996;4.754;2023-04-15T07:38:05;11.50;98.60
8862;DHT22;4799;50.996;4.754;2023-04-15T07:40:31;11.50;99.00
8862;DHT22;4799;50.996;4.754;2023-04-15T07:42:57;11.50;98.60
8862;DHT22;4799;50.996;4.754;2023-04-15T07:45:23;11.60;98.50
8862;DHT22;4799;50.996;4.754;2023-04-15T07:47:49;11.60;98.50
8862;DHT22;4799;50.996;4.754;2023-04-15T07:50:17;11.60;97.60
8862;DHT22;4799;50.996;4.754;2023-04-15T07:52:44;11.60;97.40
8862;DHT22;4799;50.996;4.754;2023-04-15T07:55:10;11.70;97.40
8862;DHT22;4799;50.996;4.754;2023-04-15T07:57:36;11.80;97.40
8862;DHT22;4799;50.996;4.754;2023-04-15T08:00:03;11.80;97.30
8862;DHT22;4799;50.996;4.754;2023-04-15T08:02:32;11.80;96.10
8862;DHT22;4799;50.996;4.754;2023-04-15T08:04:58;11.90;95.50
8862;DHT22;4799;50.996;4.754;2023-04-15T08:07:24;11.90;95.30
8862;DHT22;4799;50.996;4.754;2023-04-15T08:09:50;12.00;95.60
8862;DHT22;4799;50.996;4.754;2023-04-15T08:12:16;12.00;95.40
8862;DHT22;4799;50.996;4.754;2023-04-15T08:14:42;12.10;95.10
8862;DHT22;4799;50.996;4.754;2023-04-15T08:17:08;12.10;94.70
8862;DHT22;4799;50.996;4.754;2023-04-15T08:19:34;12.20;94.50
8862;DHT22;4799;50.996;4.754;2023-04-15T08:22:00;12.20;94.60
8862;DHT22;4799;50.996;4.754;2023-04-15T08:24:25;12.20;94.60
8862;DHT22;4799;50.996;4.754;2023-04-15T08:26:52;12.30;94.50
8862;DHT22;4799;50.996;4.754;2023-04-15T08:29:17;12.40;94.90
8862;DHT22;4799;50.996;4.754;2023-04-15T08:31:43;12.50;94.60
8862;DHT22;4799;50.996;4.754;2023-04-15T08:34:13;12.60;94.40
8862;DHT22;4799;50.996;4.754;2023-04-15T08:36:39;12.70;94.60
8862;DHT22;4799;50.996;4.754;2023-04-15T08:39:05;12.70;94.80
8862;DHT22;4799;50.996;4.754;2023-04-15T08:41:46;12.80;94.60
8862;DHT22;4799;50.996;4.754;2023-04-15T08:44:14;12.90;94.50
8862;DHT22;4799;50.996;4.754;2023-04-15T08:46:41;12.90;94.20
8862;DHT22;4799;50.996;4.754;2023-04-15T08:49:10;13.00;94.10
8862;DHT22;4799;50.996;4.754;2023-04-15T08:51:39;13.10;94.20
8862;DHT22;4799;50.996;4.754;2023-04-15T08:54:06;13.10;93.20
8862;DHT22;4799;50.996;4.754;2023-04-15T08:56:33;13.10;93.20
8862;DHT22;4799;50.996;4.754;2023-04-15T08:59:00;13.20;93.30
8862;DHT22;4799;50.996;4.754;2023-04-15T09:01:26;13.30;93.80
8862;DHT22;4799;50.996;4.754;2023-04-15T09:03:52;13.30;94.40
8862;DHT22;4799;50.996;4.754;2023-04-15T09:06:22;13.30;94.30
8862;DHT22;4799;50.996;4.754;2023-04-15T09:08:48;13.30;93.50
8862;DHT22;4799;50.996;4.754;2023-04-15T09:11:14;13.30;92.20
8862;DHT22;4799;50.996;4.754;2023-04-15T09:13:42;13.40;91.60
8862;DHT22;4799;50.996;4.754;2023-04-15T09:16:08;13.40;92.10
8862;DHT22;4799;50.996;4.754;2023-04-15T09:18:35;13.50;92.60
8862;DHT22;4799;50.996;4.754;2023-04-15T09:23:31;13.60;90.80
8862;DHT22;4799;50.996;4.754;2023-04-15T09:25:57;13.60;89.50
8862;DHT22;4799;50.996;4.754;2023-04-15T09:28:24;13.60;88.20
8862;DHT22;4799;50.996;4.754;2023-04-15T09:31:00;13.70;86.90
8862;DHT22;4799;50.996;4.754;2023-04-15T09:33:27;13.70;86.30
8862;DHT22;4799;50.996;4.754;2023-04-15T09:36:04;13.70;87.50
8862;DHT22;4799;50.996;4.754;2023-04-15T09:38:31;13.80;88.00
8862;DHT22;4799;50.996;4.754;2023-04-15T09:40:57;13.90;87.30
8862;DHT22;4799;50.996;4.754;2023-04-15T09:43:39;13.90;85.20
8862;DHT22;4799;50.996;4.754;2023-04-15T09:46:05;13.90;83.80
8862;DHT22;4799;50.996;4.754;2023-04-15T09:48:31;14.00;82.30
8862;DHT22;4799;50.996;4.754;2023-04-15T09:50:57;13.90;79.10
8862;DHT22;4799;50.996;4.754;2023-04-15T09:53:24;13.90;74.40
8862;DHT22;4799;50.996;4.754;2023-04-15T09:55:57;14.00;74.20
8862;DHT22;4799;50.996;4.754;2023-04-15T09:58:26;14.10;75.90
8862;DHT22;4799;50.996;4.754;2023-04-15T10:00:54;14.10;76.10
8862;DHT22;4799;50.996;4.754;2023-04-15T10:03:32;14.10;75.40
8862;DHT22;4799;50.996;4.754;2023-04-15T10:06:00;14.30;73.50
8862;DHT22;4799;50.996;4.754;2023-04-15T10:08:31;14.30;70.40
8862;DHT22;4799;50.996;4.754;2023-04-15T10:11:01;14.30;69.20
8862;DHT22;4799;50.996;4.754;2023-04-15T10:13:30;14.30;68.40
8862;DHT22;4799;50.996;4.754;2023-04-15T10:16:10;14.30;67.60
8862;DHT22;4799;50.996;4.754;2023-04-15T10:18:42;14.40;70.70
8862;DHT22;4799;50.996;4.754;2023-04-15T10:21:08;14.50;72.90
8862;DHT22;4799;50.996;4.754;2023-04-15T10:23:34;14.50;74.40
8862;DHT22;4799;50.996;4.754;2023-04-15T10:26:02;14.60;75.00
8862;DHT22;4799;50.996;4.754;2023-04-15T10:28:28;14.70;70.30
8862;DHT22;4799;50.996;4.754;2023-04-15T10:30:55;14.70;66.80
8862;DHT22;4799;50.996;4.754;2023-04-15T10:33:22;14.70;63.40
8862;DHT22;4799;50.996;4.754;2023-04-15T10:35:50;14.70;62.20
8862;DHT22;4799;50.996;4.754;2023-04-15T10:38:36;14.70;63.40
8862;DHT22;4799;50.996;4.754;2023-04-15T10:44:02;14.70;60.50
8862;DHT22;4799;50.996;4.754;2023-04-15T10:46:45;14.70;61.30
8862;DHT22;4799;50.996;4.754;2023-04-15T10:49:16;14.80;61.30
8862;DHT22;4799;50.996;4.754;2023-04-15T10:51:45;14.80;57.90
8862;DHT22;4799;50.996;4.754;2023-04-15T10:54:16;14.80;53.50
8862;DHT22;4799;50.996;4.754;2023-04-15T10:56:43;14.70;54.40
8862;DHT22;4799;50.996;4.754;2023-04-15T10:59:10;14.80;55.70
8862;DHT22;4799;50.996;4.754;2023-04-15T11:01:52;14.80;55.00
8862;DHT22;4799;50.996;4.754;2023-04-15T11:04:50;14.80;54.20
8862;DHT22;4799;50.996;4.754;2023-04-15T11:07:39;14.90;54.10
8862;DHT22;4799;50.996;4.754;2023-04-15T11:12:49;14.90;54.20
8862;DHT22;4799;50.996;4.754;2023-04-15T11:15:35;15.00;54.30
8862;DHT22;4799;50.996;4.754;2023-04-15T11:18:22;15.00;55.70
8862;DHT22;4799;50.996;4.754;2023-04-15T11:20:50;15.10;55.60
8862;DHT22;4799;50.996;4.754;2023-04-15T11:23:18;15.20;56.30
8862;DHT22;4799;50.996;4.754;2023-04-15T11:25:45;15.30;56.90
8862;DHT22;4799;50.996;4.754;2023-04-15T11:28:11;15.40;57.00
8862;DHT22;4799;50.996;4.754;2023-04-15T11:30:38;15.50;56.30
8862;DHT22;4799;50.996;4.754;2023-04-15T11:33:09;15.50;53.80
8862;DHT22;4799;50.996;4.754;2023-04-15T11:35:35;15.60;52.20
8862;DHT22;4799;50.996;4.754;2023-04-15T11:38:05;15.60;52.60
8862;DHT22;4799;50.996;4.754;2023-04-15T11:40:33;15.60;52.70
8862;DHT22;4799;50.996;4.754;2023-04-15T11:45:32;15.70;52.70
8862;DHT22;4799;50.996;4.754;2023-04-15T11:50:31;15.60;50.10
8862;DHT22;4799;50.996;4.754;2023-04-15T11:52:59;15.60;50.40
8862;DHT22;4799;50.996;4.754;2023-04-15T11:55:26;15.60;51.20
8862;DHT22;4799;50.996;4.754;2023-04-15T11:58:21;15.60;51.00
8862;DHT22;4799;50.996;4.754;2023-04-15T12:03:29;15.60;49.10
8862;DHT22;4799;50.996;4.754;2023-04-15T12:06:09;15.60;50.00
8862;DHT22;4799;50.996;4.754;2023-04-15T12:11:27;15.70;49.60
8862;DHT22;4799;50.996;4.754;2023-04-15T12:16:47;15.60;47.50
8862;DHT22;4799;50.996;4.754;2023-04-15T12:19:21;15.70;48.50
8862;DHT22;4799;50.996;4.754;2023-04-15T12:21:49;15.70;48.70
8862;DHT22;4799;50.996;4.754;2023-04-15T12:24:20;15.80;48.70
8862;DHT22;4799;50.996;4.754;2023-04-15T12:26:52;15.80;47.60
8862;DHT22;4799;50.996;4.754;2023-04-15T12:29:18;15.80;45.90
8862;DHT22;4799;50.996;4.754;2023-04-15T12:31:49;15.80;46.00
8862;DHT22;4799;50.996;4.754;2023-04-15T12:34:16;15.90;47.80
8862;DHT22;4799;50.996;4.754;2023-04-15T12:36:43;15.90;48.80
8862;DHT22;4799;50.996;4.754;2023-04-15T12:39:09;15.90;49.20
8862;DHT22;4799;50.996;4.754;2023-04-15T12:41:34;15.80;47.80
8862;DHT22;4799;50.996;4.754;2023-04-15T12:44:00;15.90;48.00
8862;DHT22;4799;50.996;4.754;2023-04-15T12:46:26;16.00;48.10
8862;DHT22;4799;50.996;4.754;2023-04-15T12:48:52;16.00;46.30
8862;DHT22;4799;50.996;4.754;2023-04-15T12:51:18;16.00;46.70
8862;DHT22;4799;50.996;4.754;2023-04-15T12:53:45;16.00;47.60
8862;DHT22;4799;50.996;4.754;2023-04-15T12:56:12;16.10;49.20
8862;DHT22;4799;50.996;4.754;2023-04-15T12:58:38;16.10;48.60
8862;DHT22;4799;50.996;4.754;2023-04-15T13:01:03;16.10;47.10
8862;DHT22;4799;50.996;4.754;2023-04-15T13:03:29;16.10;47.50
8862;DHT22;4799;50.996;4.754;2023-04-15T13:05:55;16.20;48.30
8862;DHT22;4799;50.996;4.754;2023-04-15T13:08:22;16.20;48.60
8862;DHT22;4799;50.996;4.754;2023-04-15T13:10:48;16.20;48.50
8862;DHT22;4799;50.996;4.754;2023-04-15T13:13:14;16.20;47.80
8862;DHT22;4799;50.996;4.754;2023-04-15T13:15:40;16.20;46.80
8862;DHT22;4799;50.996;4.754;2023-04-15T13:18:06;16.10;45.00
8862;DHT22;4799;50.996;4.754;2023-04-15T13:20:32;16.10;46.80
8862;DHT22;4799;50.996;4.754;2023-04-15T13:22:57;16.20;48.30
8862;DHT22;4799;50.996;4.754;2023-04-15T13:25:23;16.20;48.70
8862;DHT22;4799;50.996;4.754;2023-04-15T13:27:50;16.10;48.90
8862;DHT22;4799;50.996;4.754;2023-04-15T13:30:16;16.20;48.80
8862;DHT22;4799;50.996;4.754;2023-04-15T13:32:42;16.30;49.60
8862;DHT22;4799;50.996;4.754;2023-04-15T13:35:08;16.40;50.00
8862;DHT22;4799;50.996;4.754;2023-04-15T13:37:33;16.30;49.50
8862;DHT22;4799;50.996;4.754;2023-04-15T13:39:59;16.40;50.50
8862;DHT22;4799;50.996;4.754;2023-04-15T13:42:25;16.50;51.00
8862;DHT22;4799;50.996;4.754;2023-04-15T13:44:52;16.50;51.10
8862;DHT22;4799;50.996;4.754;2023-04-15T13:47:21;16.50;51.10
8862;DHT22;4799;50.996;4.754;2023-04-15T13:49:46;16.40;50.90
8862;DHT22;4799;50.996;4.754;2023-04-15T13:52:12;16.30;50.90
8862;DHT22;4799;50.996;4.754;2023-04-15T13:54:38;16.10;50.10
8862;DHT22;4799;50.996;4.754;2023-04-15T13:57:04;16.10;50.40
8862;DHT22;4799;50.996;4.754;2023-04-15T13:59:30;16.10;51.20
8862;DHT22;4799;50.996;4.754;2023-04-15T14:01:56;16.20;51.50
8862;DHT22;4799;50.996;4.754;2023-04-15T14:04:21;16.40;52.40
8862;DHT22;4799;50.996;4.754;2023-04-15T14:06:47;16.40;53.40
8862;DHT22;4799;50.996;4.754;2023-04-15T14:09:14;16.30;53.60
8862;DHT22;4799;50.996;4.754;2023-04-15T14:11:40;16.20;53.70
8862;DHT22;4799;50.996;4.754;2023-04-15T14:14:06;16.20;53.90
8862;DHT22;4799;50.996;4.754;2023-04-15T14:16:32;16.10;54.70
8862;DHT22;4799;50.996;4.754;2023-04-15T14:18:58;16.10;55.00
8862;DHT22;4799;50.996;4.754;2023-04-15T14:21:24;16.10;55.30
8862;DHT22;4799;50.996;4.754;2023-04-15T14:23:52;16.10;56.10
8862;DHT22;4799;50.996;4.754;2023-04-15T14:26:18;16.10;56.90
8862;DHT22;4799;50.996;4.754;2023-04-15T14:28:44;16.10;57.50
8862;DHT22;4799;50.996;4.754;2023-04-15T14:31:10;16.10;58.10
8862;DHT22;4799;50.996;4.754;2023-04-15T14:33:36;16.00;58.20
8862;DHT22;4799;50.996;4.754;2023-04-15T14:36:02;16.00;58.50
8862;DHT22;4799;50.996;4.754;2023-04-15T14:38:27;16.00;57.70
8862;DHT22;4799;50.996;4.754;2023-04-15T14:40:53;16.00;57.40
8862;DHT22;4799;50.996;4.754;2023-04-15T14:43:20;16.00;57.10
8862;DHT22;4799;50.996;4.754;2023-04-15T14:45:46;16.00;56.20
8862;DHT22;4799;50.996;4.754;2023-04-15T14:48:12;15.90;53.80
8862;DHT22;4799;50.996;4.754;2023-04-15T14:50:38;15.90;53.40
8862;DHT22;4799;50.996;4.754;2023-04-15T14:53:04;15.90;53.80
8862;DHT22;4799;50.996;4.754;2023-04-15T14:55:30;15.90;54.70
8862;DHT22;4799;50.996;4.754;2023-04-15T14:57:56;15.90;55.80
8862;DHT22;4799;50.996;4.754;2023-04-15T15:00:21;15.90;54.50
8862;DHT22;4799;50.996;4.754;2023-04-15T15:02:47;15.90;53.30
8862;DHT22;4799;50.996;4.754;2023-04-15T15:05:13;15.90;54.40
8862;DHT22;4799;50.996;4.754;2023-04-15T15:07:39;15.90;54.10
8862;DHT22;4799;50.996;4.754;2023-04-15T15:10:08;15.80;53.30
8862;DHT22;4799;50.996;4.754;2023-04-15T15:12:34;15.80;53.70
8862;DHT22;4799;50.996;4.754;2023-04-15T15:15:00;15.80;54.10
8862;DHT22;4799;50.996;4.754;2023-04-15T15:17:26;15.70;54.10
8862;DHT22;4799;50.996;4.754;2023-04-15T15:19:52;15.60;54.40
8862;DHT22;4799;50.996;4.754;2023-04-15T15:22:17;15.60;55.30
8862;DHT22;4799;50.996;4.754;2023-04-15T15:24:43;15.60;54.80
8862;DHT22;4799;50.996;4.754;2023-04-15T15:27:09;15.60;54.50
8862;DHT22;4799;50.996;4.754;2023-04-15T15:29:36;15.50;54.80
8862;DHT22;4799;50.996;4.754;2023-04-15T15:32:02;15.40;55.70
8862;DHT22;4799;50.996;4.754;2023-04-15T15:34:27;15.30;56.40
8862;DHT22;4799;50.996;4.754;2023-04-15T15:36:53;15.40;56.70
8862;DHT22;4799;50.996;4.754;2023-04-15T15:39:22;15.50;57.30
8862;DHT22;4799;50.996;4.754;2023-04-15T15:41:49;15.60;57.50
8862;DHT22;4799;50.996;4.754;2023-04-15T15:44:15;15.60;55.30
8862;DHT22;4799;50.996;4.754;2023-04-15T15:46:40;15.70;55.50
8862;DHT22;4799;50.996;4.754;2023-04-15T15:49:06;15.90;56.10
8862;DHT22;4799;50.996;4.754;2023-04-15T15:51:32;16.00;56.60
8862;DHT22;4799;50.996;4.754;2023-04-15T15:53:58;16.10;55.70
8862;DHT22;4799;50.996;4.754;2023-04-15T15:56:23;16.10;53.80
8862;DHT22;4799;50.996;4.754;2023-04-15T15:58:49;16.10;54.10
8862;DHT22;4799;50.996;4.754;2023-04-15T16:01:15;16.10;55.10
8862;DHT22;4799;50.996;4.754;2023-04-15T16:03:41;16.10;55.90
8862;DHT22;4799;50.996;4.754;2023-04-15T16:06:07;16.00;56.50
8862;DHT22;4799;50.996;4.754;2023-04-15T16:08:32;15.90;57.20
8862;DHT22;4799;50.996;4.754;2023-04-15T16:10:58;15.80;57.30
8862;DHT22;4799;50.996;4.754;2023-04-15T16:13:27;15.60;55.40
8862;DHT22;4799;50.996;4.754;2023-04-15T16:15:53;15.60;56.40
8862;DHT22;4799;50.996;4.754;2023-04-15T16:18:18;15.60;57.30
8862;DHT22;4799;50.996;4.754;2023-04-15T16:20:44;15.60;57.80
8862;DHT22;4799;50.996;4.754;2023-04-15T16:23:15;15.70;58.30
8862;DHT22;4799;50.996;4.754;2023-04-15T16:25:42;15.80;57.90